In Rescue
 
Open Full Screen Window  High Contrast Mode
January 28, 2020 11:51 PM CST
Present Weather: Light Snow
Weather Information
Wind Direction
  ---
Wind Speed
  00 kt (0 mph)
Wind Gust
  00 kt (0 mph)
Altimeter
30.15 in
Visibility
7 SM
Temperature
-10° C
14° F
Dewpoint
-12° C
10° F
Humidity
85%
1hr Rain Fall
00.00 in.
24hr Rain Fall
00.00 in.
Sky Condition
Overcast @ 2,300 ft
MVFR

METAR KORB 290551Z AUTO 00000KT 7SM -SN OVC023 M10/M12 A3015 RMK AO2

FAA Disclaimer: The data displayed is for advisory purposes only and is not to be used for flight planning or operations.